Time;durP1;ratioP1;P1;durP2;ratioP2;P2;SDS_P1;SDS_P2;PMS_P1;PMS_P2;Temp;Humidity;BMP_temperature;BMP_pressure;BME280_temperature;BME280_humidity;BME280_pressure;Samples;Min_cycle;Max_cycle;Signal;HPM_P1;HPM_P2
2022/08/25 00:01:46;;;;;;;9.70;5.93;;;23.00;63.30;;;;;;5076318;28;20450;-78
2022/08/25 00:04:16;;;;;;;10.33;6.50;;;23.00;63.30;;;;;;5074004;28;20459;-78
2022/08/25 00:06:46;;;;;;;11.33;6.00;;;23.00;63.20;;;;;;5079438;28;20469;-78
2022/08/25 00:09:18;;;;;;;10.00;5.63;;;23.00;63.20;;;;;;5079007;28;20445;-77
2022/08/25 00:11:48;;;;;;;9.20;6.07;;;22.90;63.20;;;;;;5076677;28;20816;-78
2022/08/25 00:14:19;;;;;;;10.23;6.43;;;22.90;63.20;;;;;;5073510;28;20487;-78
2022/08/25 00:16:47;;;;;;;9.80;5.73;;;22.80;63.30;;;;;;5075594;28;20465;-78
2022/08/25 00:19:19;;;;;;;13.40;6.63;;;22.80;63.30;;;;;;5065885;28;20794;-78
2022/08/25 00:21:47;;;;;;;8.50;5.90;;;22.80;63.20;;;;;;5074420;28;20473;-78
2022/08/25 00:24:18;;;;;;;9.17;6.87;;;22.70;63.20;;;;;;5079254;28;20457;-78
2022/08/25 00:26:49;;;;;;;9.60;5.47;;;22.70;63.20;;;;;;5076991;28;20818;-78
2022/08/25 00:29:18;;;;;;;14.90;6.90;;;22.70;63.20;;;;;;5072769;28;20465;-77
2022/08/25 00:31:47;;;;;;;9.30;5.43;;;22.70;63.20;;;;;;5072513;28;20452;-78
2022/08/25 00:34:18;;;;;;;10.60;5.87;;;22.60;63.30;;;;;;5071695;28;20832;-78
2022/08/25 00:36:47;;;;;;;12.13;6.50;;;22.60;63.20;;;;;;5074406;28;20472;-78
2022/08/25 00:39:16;;;;;;;9.50;6.07;;;22.60;63.20;;;;;;5088200;28;20978;-79
2022/08/25 00:41:44;;;;;;;8.53;6.20;;;22.60;63.20;;;;;;5078263;28;20461;-78
2022/08/25 00:44:16;;;;;;;12.57;6.93;;;22.50;63.30;;;;;;5071076;28;20448;-76
2022/08/25 00:46:46;;;;;;;8.77;5.90;;;22.50;63.30;;;;;;5076946;28;20483;-79
2022/08/25 00:49:18;;;;;;;10.47;6.77;;;22.40;63.40;;;;;;5074623;28;20448;-79
2022/08/25 00:51:55;;;;;;;9.63;6.13;;;22.40;63.40;;;;;;5079885;28;20686;-79
2022/08/25 00:54:28;;;;;;;8.90;5.83;;;22.30;63.40;;;;;;5076913;28;20541;-78
2022/08/25 00:56:58;;;;;;;13.80;7.03;;;22.30;63.60;;;;;;5074175;28;20837;-79
2022/08/25 00:59:27;;;;;;;8.87;6.20;;;22.30;63.60;;;;;;5073950;28;20457;-77
2022/08/25 01:01:55;;;;;;;11.83;7.27;;;22.20;63.60;;;;;;5077674;28;20455;-77
2022/08/25 01:04:24;;;;;;;12.03;5.97;;;22.20;63.60;;;;;;5074621;28;20453;-78
2022/08/25 01:06:52;;;;;;;10.53;7.00;;;22.20;63.60;;;;;;5076113;28;20468;-79
2022/08/25 01:09:20;;;;;;;11.30;7.23;;;22.10;63.60;;;;;;5073225;28;20458;-79
2022/08/25 01:11:50;;;;;;;9.10;6.40;;;22.00;63.60;;;;;;5074805;28;20459;-77
2022/08/25 01:14:20;;;;;;;9.77;6.67;;;22.00;63.70;;;;;;5071681;28;20527;-79
2022/08/25 01:16:48;;;;;;;9.10;6.37;;;21.90;63.70;;;;;;5072937;28;20846;-79
2022/08/25 01:19:21;;;;;;;11.63;6.53;;;21.90;63.80;;;;;;5076209;28;20465;-76
2022/08/25 01:21:52;;;;;;;11.23;7.33;;;21.80;63.80;;;;;;5071219;28;20471;-79
2022/08/25 01:24:25;;;;;;;10.33;6.60;;;21.80;63.90;;;;;;5072475;28;20454;-77
2022/08/25 01:26:53;;;;;;;11.47;7.37;;;21.70;64.00;;;;;;5077642;28;20477;-78
2022/08/25 01:29:24;;;;;;;10.90;7.33;;;21.70;64.00;;;;;;5078043;28;20470;-77
2022/08/25 01:31:56;;;;;;;11.33;6.80;;;21.70;64.10;;;;;;5075132;28;20535;-79
2022/08/25 01:34:26;;;;;;;17.03;6.10;;;21.70;64.20;;;;;;5075476;28;20486;-79
2022/08/25 01:36:57;;;;;;;11.27;7.10;;;21.70;64.30;;;;;;5061397;28;20478;-79
2022/08/25 01:39:27;;;;;;;11.17;7.67;;;21.70;64.40;;;;;;5075909;28;20452;-78
2022/08/25 01:42:12;;;;;;;9.57;6.47;;;21.60;64.50;;;;;;5094101;28;20540;-79
2022/08/25 01:44:43;;;;;;;10.20;6.60;;;21.60;64.60;;;;;;5079546;28;20438;-78
2022/08/25 01:47:13;;;;;;;14.20;7.20;;;21.60;64.80;;;;;;5081888;28;20461;-78
2022/08/25 01:49:40;;;;;;;11.33;7.40;;;21.60;64.90;;;;;;5080255;28;20445;-78
2022/08/25 01:52:15;;;;;;;10.53;7.20;;;21.50;65.00;;;;;;5074637;28;20446;-79
2022/08/25 01:54:43;;;;;;;11.50;6.80;;;21.50;65.10;;;;;;5072481;28;20478;-78
2022/08/25 01:57:11;;;;;;;10.90;6.57;;;21.50;65.10;;;;;;5078731;28;21230;-78
2022/08/25 01:59:40;;;;;;;11.03;7.40;;;21.60;65.20;;;;;;5082026;28;20457;-78
2022/08/25 02:02:08;;;;;;;12.27;7.90;;;21.60;65.30;;;;;;5091815;28;20465;-77
2022/08/25 02:04:38;;;;;;;12.33;7.43;;;21.60;65.30;;;;;;5076323;28;20450;-76
2022/08/25 02:07:09;;;;;;;12.07;8.03;;;21.60;65.30;;;;;;5079669;28;20516;-78
2022/08/25 02:09:38;;;;;;;13.07;8.20;;;21.60;65.50;;;;;;5078994;28;20993;-78
2022/08/25 02:12:08;;;;;;;14.43;8.23;;;21.60;65.50;;;;;;5078518;28;20450;-79
2022/08/25 02:14:36;;;;;;;11.83;8.33;;;21.60;65.50;;;;;;5074667;28;20568;-78
2022/08/25 02:17:05;;;;;;;13.23;7.20;;;21.60;65.60;;;;;;5077905;28;20470;-78
2022/08/25 02:19:33;;;;;;;12.10;8.13;;;21.50;65.50;;;;;;5079029;28;20474;-77
2022/08/25 02:22:02;;;;;;;11.80;8.30;;;21.50;65.50;;;;;;5075247;28;20488;-77
2022/08/25 02:24:30;;;;;;;11.60;8.00;;;21.50;65.60;;;;;;5061057;28;20461;-78
2022/08/25 02:26:59;;;;;;;15.90;7.97;;;21.50;65.70;;;;;;5079401;28;20490;-79
2022/08/25 02:29:27;;;;;;;14.50;7.40;;;21.50;65.70;;;;;;5079460;28;20462;-76
2022/08/25 02:31:55;;;;;;;10.40;7.63;;;21.50;65.70;;;;;;5069238;28;20447;-78
2022/08/25 02:34:23;;;;;;;11.20;7.43;;;21.50;65.70;;;;;;5060347;28;21079;-78
2022/08/25 02:36:51;;;;;;;14.47;8.00;;;21.40;65.70;;;;;;5077326;28;20474;-77
2022/08/25 02:39:19;;;;;;;10.87;7.40;;;21.40;65.80;;;;;;5080689;28;20513;-77
2022/08/25 02:41:47;;;;;;;11.50;7.80;;;21.40;65.80;;;;;;5080416;28;20457;-77
2022/08/25 02:44:16;;;;;;;17.03;8.27;;;21.40;65.80;;;;;;5075907;28;20464;-78
2022/08/25 02:46:44;;;;;;;13.87;8.43;;;21.40;65.90;;;;;;5072810;28;20474;-78
2022/08/25 02:49:12;;;;;;;12.63;8.37;;;21.40;65.90;;;;;;5074705;28;21338;-78
2022/08/25 02:51:40;;;;;;;13.07;8.40;;;21.30;65.90;;;;;;5075608;28;20505;-77
2022/08/25 02:54:08;;;;;;;14.40;7.80;;;21.30;65.90;;;;;;5073187;28;20844;-78
2022/08/25 02:56:36;;;;;;;12.10;7.03;;;21.30;66.00;;;;;;5073093;28;21024;-79
2022/08/25 02:59:04;;;;;;;11.80;8.13;;;21.30;66.00;;;;;;5075025;28;20464;-78
2022/08/25 03:01:34;;;;;;;11.93;7.57;;;21.20;66.10;;;;;;5077878;28;20454;-77
2022/08/25 03:04:02;;;;;;;14.50;8.10;;;21.20;66.20;;;;;;5077679;28;20460;-78
2022/08/25 03:06:30;;;;;;;12.90;7.87;;;21.20;66.30;;;;;;5076384;28;21246;-79
2022/08/25 03:08:59;;;;;;;11.57;8.73;;;21.20;66.30;;;;;;5060697;28;20462;-79
2022/08/25 03:11:27;;;;;;;13.07;8.77;;;21.20;66.30;;;;;;5072571;28;20497;-79
2022/08/25 03:13:56;;;;;;;14.00;8.73;;;21.10;66.30;;;;;;5074510;28;20454;-78
2022/08/25 03:16:24;;;;;;;14.70;8.80;;;21.00;66.30;;;;;;5072684;28;20475;-78
2022/08/25 03:18:56;;;;;;;13.93;9.17;;;21.00;66.40;;;;;;5059543;28;20548;-78
2022/08/25 03:21:25;;;;;;;12.53;8.40;;;21.00;66.40;;;;;;5071633;28;20913;-79
2022/08/25 03:23:53;;;;;;;14.13;8.30;;;20.90;66.60;;;;;;5077767;28;20816;-78
2022/08/25 03:29:07;;;;;;;13.07;9.23;;;20.90;66.80;;;;;;5076258;28;20442;-78
2022/08/25 03:31:36;;;;;;;12.50;8.80;;;20.90;67.00;;;;;;5072185;28;21203;-78
2022/08/25 03:34:06;;;;;;;12.70;8.13;;;20.80;67.10;;;;;;5073288;28;20499;-78
2022/08/25 03:36:34;;;;;;;12.60;8.63;;;20.80;67.30;;;;;;5076161;28;20465;-78
2022/08/25 03:39:02;;;;;;;15.60;9.97;;;20.80;67.40;;;;;;5075121;28;20452;-78
2022/08/25 03:41:32;;;;;;;12.00;8.17;;;20.80;67.50;;;;;;5073614;28;20454;-78
2022/08/25 03:44:02;;;;;;;13.77;9.07;;;20.80;67.50;;;;;;5074040;28;20532;-78
2022/08/25 03:46:33;;;;;;;14.57;9.30;;;20.80;67.60;;;;;;5072296;28;21020;-77
2022/08/25 03:49:02;;;;;;;13.23;9.30;;;20.80;67.60;;;;;;5076771;28;20482;-79
2022/08/25 03:51:33;;;;;;;13.70;8.07;;;20.80;67.60;;;;;;5070089;28;20447;-77
2022/08/25 03:54:02;;;;;;;16.97;9.00;;;20.80;67.50;;;;;;5074107;28;21020;-77
2022/08/25 03:56:30;;;;;;;12.47;8.50;;;20.70;67.50;;;;;;5063091;28;20670;-78
2022/08/25 03:58:59;;;;;;;12.93;8.37;;;20.70;67.50;;;;;;5071431;28;21108;-78
2022/08/25 04:01:27;;;;;;;17.53;13.30;;;20.70;67.40;;;;;;5076917;28;20457;-78
2022/08/25 04:03:56;;;;;;;16.53;11.53;;;20.70;67.40;;;;;;5074933;28;21112;-76
2022/08/25 04:06:24;;;;;;;13.13;9.40;;;20.60;67.40;;;;;;5071611;28;20480;-77
2022/08/25 04:08:53;;;;;;;14.60;9.20;;;20.60;67.40;;;;;;5074889;28;20465;-78
2022/08/25 04:11:23;;;;;;;14.60;9.70;;;20.60;67.30;;;;;;5075865;28;20459;-78
2022/08/25 04:13:52;;;;;;;14.17;9.80;;;20.50;67.40;;;;;;5078618;28;20457;-79
2022/08/25 04:16:22;;;;;;;15.30;9.73;;;20.50;67.40;;;;;;5077763;28;20499;-79
2022/08/25 04:18:52;;;;;;;19.57;9.23;;;20.50;67.40;;;;;;5079861;28;20449;-77
2022/08/25 04:21:20;;;;;;;14.17;9.73;;;20.50;67.40;;;;;;5059943;28;20823;-77
2022/08/25 04:23:50;;;;;;;13.10;9.93;;;20.40;67.30;;;;;;5076993;28;20441;-78
2022/08/25 04:26:22;;;;;;;14.20;8.70;;;20.40;67.30;;;;;;5062033;28;20472;-77
2022/08/25 04:28:51;;;;;;;15.27;9.13;;;20.40;67.30;;;;;;5074075;28;20464;-77
2022/08/25 04:31:21;;;;;;;14.03;10.07;;;20.30;67.20;;;;;;5070769;28;20464;-78
2022/08/25 04:33:49;;;;;;;14.47;9.40;;;20.30;67.30;;;;;;5067459;28;20449;-76
2022/08/25 04:36:19;;;;;;;14.77;9.57;;;20.30;67.30;;;;;;5070026;28;21191;-78
2022/08/25 04:38:49;;;;;;;13.20;9.30;;;20.20;67.40;;;;;;5077690;28;20455;-78
2022/08/25 04:41:20;;;;;;;14.20;8.90;;;20.20;67.50;;;;;;5074925;28;20445;-78
2022/08/25 04:43:48;;;;;;;13.30;8.60;;;20.10;67.50;;;;;;5072945;28;20853;-78
2022/08/25 04:46:19;;;;;;;13.80;9.60;;;20.10;67.60;;;;;;5076957;28;20493;-78
2022/08/25 04:48:48;;;;;;;13.50;9.47;;;20.00;67.70;;;;;;5079921;28;20462;-78
2022/08/25 04:51:18;;;;;;;11.73;8.63;;;20.00;67.80;;;;;;5081632;28;20449;-78
2022/08/25 04:53:46;;;;;;;14.70;9.87;;;20.00;67.90;;;;;;5079022;28;20456;-78
2022/08/25 04:56:16;;;;;;;16.73;9.63;;;20.00;68.00;;;;;;5083823;28;20497;-78
2022/08/25 04:58:46;;;;;;;18.20;10.33;;;20.10;68.10;;;;;;5084524;28;20806;-76
2022/08/25 05:01:16;;;;;;;15.17;9.53;;;20.10;68.20;;;;;;5085225;28;20961;-78
2022/08/25 05:03:45;;;;;;;15.67;9.83;;;20.10;68.30;;;;;;5092714;28;20461;-78
2022/08/25 05:06:13;;;;;;;15.10;9.80;;;20.10;68.50;;;;;;5085272;28;20464;-78
2022/08/25 05:08:45;;;;;;;12.83;9.50;;;20.20;68.60;;;;;;5085394;28;20453;-78
2022/08/25 05:11:16;;;;;;;13.43;8.57;;;20.30;68.80;;;;;;5082540;28;20478;-78
2022/08/25 05:13:46;;;;;;;14.67;8.70;;;20.80;69.50;;;;;;5079364;28;20536;-78
2022/08/25 05:16:19;;;;;;;14.10;9.37;;;21.60;68.80;;;;;;5079854;28;21409;-77
2022/08/25 05:18:47;;;;;;;13.33;9.23;;;22.30;67.50;;;;;;5078673;28;20504;-78
2022/08/25 05:21:19;;;;;;;12.77;8.80;;;22.80;66.70;;;;;;5062437;28;20463;-78
2022/08/25 05:23:48;;;;;;;13.37;9.47;;;23.40;66.20;;;;;;5078410;28;20442;-78
2022/08/25 05:26:18;;;;;;;13.80;8.93;;;24.10;65.70;;;;;;5078327;28;20469;-77
2022/08/25 05:28:50;;;;;;;15.00;10.70;;;25.00;64.60;;;;;;5091088;28;20491;-77
2022/08/25 05:31:19;;;;;;;11.77;7.97;;;25.80;63.30;;;;;;5075276;28;20866;-78
2022/08/25 05:33:47;;;;;;;14.67;8.80;;;26.60;62.20;;;;;;5079878;28;20954;-77
2022/08/25 05:36:17;;;;;;;13.03;9.00;;;27.40;60.90;;;;;;5076265;28;20566;-78
2022/08/25 05:38:44;;;;;;;15.33;9.70;;;28.10;59.70;;;;;;5073810;28;20484;-77
2022/08/25 05:41:15;;;;;;;11.43;9.27;;;28.80;58.50;;;;;;5077744;28;20463;-77
2022/08/25 05:43:47;;;;;;;11.60;8.70;;;29.50;57.20;;;;;;5075858;28;20464;-78
2022/08/25 05:46:17;;;;;;;13.83;9.60;;;30.10;56.20;;;;;;5075056;28;20479;-78
2022/08/25 05:48:46;;;;;;;14.60;8.83;;;30.40;54.60;;;;;;5080797;28;20486;-77
2022/08/25 05:51:14;;;;;;;11.80;9.07;;;29.90;53.50;;;;;;5078988;28;20451;-78
2022/08/25 05:53:44;;;;;;;17.63;10.57;;;28.90;53.70;;;;;;5072944;28;20470;-78
2022/08/25 05:56:13;;;;;;;15.57;10.07;;;27.80;54.50;;;;;;5074837;28;21044;-78
2022/08/25 05:58:42;;;;;;;18.50;10.17;;;26.80;55.30;;;;;;5077274;28;20452;-78
2022/08/25 06:04:05;;;;;;;12.57;9.50;;;25.30;57.30;;;;;;5070711;28;20449;-78
2022/08/25 06:06:33;;;;;;;14.03;10.10;;;24.60;58.40;;;;;;5075071;28;20468;-77
2022/08/25 06:09:02;;;;;;;15.50;11.00;;;24.10;59.50;;;;;;5079048;28;20443;-78
2022/08/25 06:11:30;;;;;;;18.43;11.83;;;23.80;60.40;;;;;;5077993;28;21044;-77
2022/08/25 06:13:58;;;;;;;16.83;11.23;;;23.50;61.20;;;;;;5079324;28;21318;-78
2022/08/25 06:16:26;;;;;;;19.30;12.30;;;23.30;62.00;;;;;;5074118;28;20483;-78
2022/08/25 06:18:54;;;;;;;15.93;11.53;;;23.00;62.80;;;;;;5079388;28;20496;-79
2022/08/25 06:21:24;;;;;;;19.47;11.70;;;22.90;63.40;;;;;;5065324;28;20829;-79
2022/08/25 06:23:52;;;;;;;16.20;12.50;;;22.80;64.00;;;;;;5074161;28;20472;-77
2022/08/25 06:26:20;;;;;;;14.97;11.50;;;22.70;64.60;;;;;;5077433;28;20987;-77
2022/08/25 06:28:49;;;;;;;18.27;12.30;;;22.60;65.10;;;;;;5074440;28;20449;-77
2022/08/25 06:31:18;;;;;;;16.57;11.73;;;22.50;65.80;;;;;;5073944;28;20452;-77
2022/08/25 06:33:46;;;;;;;21.13;12.70;;;22.50;66.20;;;;;;5076493;28;20453;-76
2022/08/25 06:36:15;;;;;;;18.50;13.00;;;22.40;66.70;;;;;;5073822;28;20491;-77
2022/08/25 06:38:44;;;;;;;16.00;11.93;;;22.30;67.40;;;;;;5076360;28;21030;-77
2022/08/25 06:41:12;;;;;;;17.97;12.83;;;22.30;67.80;;;;;;5074003;28;20465;-77
2022/08/25 06:43:42;;;;;;;20.43;12.90;;;22.20;68.20;;;;;;5078479;28;20857;-77
2022/08/25 06:46:18;;;;;;;17.27;12.57;;;22.20;68.40;;;;;;5076028;28;20988;-76
2022/08/25 06:48:47;;;;;;;18.60;12.50;;;22.20;69.00;;;;;;5078496;28;20983;-77
2022/08/25 06:51:18;;;;;;;18.27;13.50;;;22.20;69.20;;;;;;5078485;28;20455;-75
2022/08/25 06:53:49;;;;;;;15.87;12.40;;;22.20;69.70;;;;;;5082236;28;20459;-77
2022/08/25 06:56:19;;;;;;;21.10;13.67;;;22.20;69.70;;;;;;5077068;28;20495;-77
2022/08/25 06:58:48;;;;;;;18.97;13.77;;;22.20;70.00;;;;;;5078468;28;20462;-77
2022/08/25 07:01:18;;;;;;;19.50;14.33;;;22.30;70.20;;;;;;5072987;28;20449;-78
2022/08/25 07:03:48;;;;;;;16.47;12.77;;;22.30;70.20;;;;;;5076249;28;20454;-77
2022/08/25 07:06:19;;;;;;;21.77;13.23;;;22.50;70.40;;;;;;5073293;28;21027;-77
2022/08/25 07:08:48;;;;;;;18.83;13.87;;;22.60;70.50;;;;;;5078207;28;20489;-77
2022/08/25 07:11:17;;;;;;;17.50;12.90;;;22.60;70.50;;;;;;5073887;28;20455;-77
2022/08/25 07:13:45;;;;;;;20.40;14.33;;;22.70;70.50;;;;;;5074697;28;20492;-77
2022/08/25 07:16:14;;;;;;;22.43;13.53;;;22.70;70.60;;;;;;5075758;28;20487;-77
2022/08/25 07:18:43;;;;;;;23.47;14.00;;;22.80;70.70;;;;;;5073114;28;21284;-76
2022/08/25 07:21:12;;;;;;;17.23;12.13;;;22.80;70.80;;;;;;5075700;28;20462;-78
2022/08/25 07:23:41;;;;;;;18.70;13.63;;;22.90;70.80;;;;;;5071446;28;20470;-77
2022/08/25 07:26:13;;;;;;;18.50;12.27;;;23.00;70.80;;;;;;5072056;28;20473;-75
2022/08/25 07:29:01;;;;;;;16.80;12.33;;;23.00;70.90;;;;;;5074284;28;20457;-77
2022/08/25 07:31:30;;;;;;;19.50;12.67;;;23.10;70.90;;;;;;5074385;28;20451;-76
2022/08/25 07:36:44;;;;;;;17.27;13.30;;;23.20;70.90;;;;;;5072128;28;20488;-77
2022/08/25 07:39:12;;;;;;;17.77;12.97;;;23.30;71.10;;;;;;5076238;28;20466;-76
2022/08/25 07:41:42;;;;;;;21.10;12.63;;;23.30;71.00;;;;;;5076551;28;20441;-76
2022/08/25 07:44:11;;;;;;;19.90;12.47;;;23.30;71.10;;;;;;5073135;28;20455;-76
2022/08/25 07:46:40;;;;;;;20.67;12.93;;;23.40;71.10;;;;;;5060517;28;20473;-76
2022/08/25 07:49:09;;;;;;;18.33;12.60;;;23.40;71.10;;;;;;5080019;28;20448;-75
2022/08/25 07:51:43;;;;;;;18.63;12.03;;;23.50;71.20;;;;;;5079431;28;20460;-77
2022/08/25 07:54:31;;;;;;;18.57;12.20;;;23.50;71.40;;;;;;5072940;28;20455;-77
2022/08/25 07:57:03;;;;;;;19.77;13.03;;;23.50;71.30;;;;;;5073867;28;20490;-77
2022/08/25 07:59:31;;;;;;;16.53;12.37;;;23.50;71.40;;;;;;5076640;28;20504;-78
2022/08/25 08:02:08;;;;;;;15.23;11.60;;;23.60;71.30;;;;;;5076647;28;20450;-76
2022/08/25 08:04:47;;;;;;;21.80;12.60;;;23.60;71.40;;;;;;5055793;28;20446;-76
2022/08/25 08:07:17;;;;;;;18.93;11.43;;;23.70;71.40;;;;;;5075970;28;20502;-76
2022/08/25 08:09:46;;;;;;;16.63;12.30;;;23.80;71.30;;;;;;5077303;28;20470;-77
2022/08/25 08:12:21;;;;;;;18.57;12.43;;;23.80;71.20;;;;;;5074635;28;20511;-77
2022/08/25 08:14:49;;;;;;;22.73;12.83;;;23.90;71.10;;;;;;5076927;28;20465;-77
2022/08/25 08:17:18;;;;;;;15.50;11.13;;;23.90;71.10;;;;;;5074130;28;20489;-77
2022/08/25 08:19:46;;;;;;;22.93;11.90;;;24.00;71.10;;;;;;5074634;28;20458;-77
2022/08/25 08:22:14;;;;;;;19.03;12.10;;;24.00;71.10;;;;;;5073490;28;20837;-77
2022/08/25 08:24:43;;;;;;;14.53;11.43;;;24.10;71.00;;;;;;5072347;28;20504;-78
2022/08/25 08:27:24;;;;;;;15.50;11.20;;;24.10;71.00;;;;;;5077348;28;20492;-76
2022/08/25 08:29:53;;;;;;;18.10;11.70;;;24.10;71.10;;;;;;5076806;28;20941;-76
2022/08/25 08:32:21;;;;;;;15.17;11.10;;;24.20;71.00;;;;;;5078558;28;21254;-77
2022/08/25 08:35:02;;;;;;;16.10;10.87;;;24.20;70.90;;;;;;5080004;28;20488;-76
2022/08/25 08:37:30;;;;;;;14.90;11.83;;;24.30;70.70;;;;;;5079338;28;20529;-77
2022/08/25 08:40:00;;;;;;;15.33;11.90;;;24.30;70.60;;;;;;5077126;28;21074;-77
2022/08/25 08:42:51;;;;;;;19.83;10.77;;;24.30;70.70;;;;;;5078920;28;20449;-77
2022/08/25 08:45:30;;;;;;;14.93;11.43;;;24.40;70.70;;;;;;5080720;28;20454;-77
2022/08/25 08:48:42;;;;;;;16.00;10.30;;;24.50;70.50;;;;;;5077405;28;21128;-77
2022/08/25 08:51:19;;;;;;;13.47;10.27;;;24.50;70.40;;;;;;5056557;28;20458;-76
2022/08/25 08:53:56;;;;;;;14.77;9.93;;;24.50;70.40;;;;;;5077415;28;20485;-75
2022/08/25 08:56:29;;;;;;;14.40;10.47;;;24.60;70.40;;;;;;5080179;28;20482;-77
2022/08/25 08:59:03;;;;;;;16.10;9.97;;;24.70;70.20;;;;;;5077454;28;21050;-75
2022/08/25 09:01:38;;;;;;;13.80;9.40;;;24.70;70.10;;;;;;5077748;28;20528;-77
2022/08/25 09:04:14;;;;;;;11.93;8.67;;;24.80;70.00;;;;;;5078085;28;21219;-77
2022/08/25 09:06:50;;;;;;;15.10;9.47;;;24.90;69.80;;;;;;5074278;28;20481;-77
2022/08/25 09:09:25;;;;;;;13.27;8.57;;;25.00;69.60;;;;;;5077285;28;20446;-77
2022/08/25 09:12:02;;;;;;;13.03;9.30;;;25.00;69.50;;;;;;5074654;28;20458;-77
2022/08/25 09:14:41;;;;;;;11.10;8.57;;;25.00;69.20;;;;;;5075896;28;20462;-77
2022/08/25 09:17:18;;;;;;;12.80;9.13;;;25.10;69.10;;;;;;5075923;28;21313;-77
2022/08/25 09:20:25;;;;;;;13.37;8.43;;;25.10;69.00;;;;;;5078243;28;20507;-77
2022/08/25 09:23:01;;;;;;;12.70;7.97;;;25.20;68.80;;;;;;5070173;28;20553;-77
2022/08/25 09:25:40;;;;;;;11.67;8.93;;;25.30;68.60;;;;;;5083717;28;20461;-77
2022/08/25 09:28:25;;;;;;;14.23;8.67;;;25.40;68.20;;;;;;5079000;28;20829;-77
2022/08/25 09:30:59;;;;;;;12.00;8.47;;;25.40;68.00;;;;;;5081144;28;20528;-77
2022/08/25 09:33:30;;;;;;;11.43;8.33;;;25.50;67.90;;;;;;5075943;28;20462;-77
2022/08/25 09:36:03;;;;;;;14.60;9.50;;;25.60;67.80;;;;;;5074395;28;20462;-78
2022/08/25 09:38:33;;;;;;;12.00;8.67;;;25.60;67.60;;;;;;5078517;28;20480;-77
2022/08/25 09:41:02;;;;;;;13.03;9.80;;;25.70;67.30;;;;;;5077170;28;20482;-76
2022/08/25 09:43:41;;;;;;;16.70;8.70;;;25.70;67.20;;;;;;5072379;28;20449;-76
2022/08/25 09:46:13;;;;;;;15.20;8.30;;;25.80;67.20;;;;;;5078041;28;20491;-77
2022/08/25 09:48:45;;;;;;;12.70;8.20;;;25.80;67.10;;;;;;5077638;28;20491;-77
2022/08/25 09:51:27;;;;;;;14.93;9.10;;;25.90;66.90;;;;;;5075216;28;20450;-77
2022/08/25 09:54:00;;;;;;;10.60;8.70;;;25.90;66.70;;;;;;5074968;28;20569;-77
2022/08/25 09:56:49;;;;;;;13.53;8.80;;;25.90;66.70;;;;;;5079198;28;20477;-76
2022/08/25 09:59:23;;;;;;;12.73;9.40;;;26.00;66.60;;;;;;5079061;28;20854;-76
2022/08/25 10:02:06;;;;;;;11.63;8.37;;;26.00;66.50;;;;;;5076876;28;20445;-77
2022/08/25 10:04:36;;;;;;;12.40;8.57;;;26.00;66.20;;;;;;5079318;28;20446;-77
2022/08/25 10:07:23;;;;;;;16.33;8.33;;;26.00;66.10;;;;;;5076943;28;20470;-77
2022/08/25 10:09:55;;;;;;;14.87;8.03;;;26.10;66.00;;;;;;5059982;28;20463;-75
2022/08/25 10:12:33;;;;;;;12.13;8.27;;;26.10;65.80;;;;;;5075981;28;20544;-76
2022/08/25 10:15:17;;;;;;;12.47;7.93;;;26.10;65.60;;;;;;5079552;28;20458;-77
2022/08/25 10:18:19;;;;;;;13.93;7.73;;;26.20;65.50;;;;;;5073543;28;20528;-77
2022/08/25 10:21:08;;;;;;;10.37;7.30;;;26.30;65.20;;;;;;5080698;28;20478;-77
2022/08/25 10:23:42;;;;;;;9.43;7.10;;;26.30;64.90;;;;;;5077302;28;20514;-77
2022/08/25 10:26:19;;;;;;;10.13;6.87;;;26.40;64.90;;;;;;5073294;28;20467;-77
2022/08/25 10:29:03;;;;;;;9.57;6.30;;;26.40;64.70;;;;;;5076897;28;20439;-75
2022/08/25 10:31:38;;;;;;;10.10;7.53;;;26.40;64.50;;;;;;5058791;28;20983;-76
2022/08/25 10:34:21;;;;;;;10.17;7.47;;;26.40;64.30;;;;;;5079876;28;21017;-77
2022/08/25 10:36:58;;;;;;;9.93;7.23;;;26.50;64.10;;;;;;5075207;28;20478;-77
2022/08/25 10:39:36;;;;;;;11.07;7.60;;;26.60;64.10;;;;;;5076945;28;20477;-76
2022/08/25 10:42:23;;;;;;;9.20;6.80;;;26.60;64.00;;;;;;5077194;28;20450;-76
2022/08/25 10:48:25;;;;;;;9.50;6.47;;;26.70;63.40;;;;;;5074498;28;20474;-77
2022/08/25 10:51:00;;;;;;;11.37;7.40;;;26.80;63.40;;;;;;5075833;28;20537;-77
2022/08/25 10:53:41;;;;;;;10.93;7.20;;;26.80;63.20;;;;;;5075812;28;20506;-77
2022/08/25 10:56:15;;;;;;;13.40;7.00;;;26.80;63.00;;;;;;5072319;28;20932;-77
2022/08/25 10:59:28;;;;;;;11.93;7.10;;;26.80;62.90;;;;;;5078340;28;20479;-77
2022/08/25 11:02:21;;;;;;;9.63;7.30;;;26.80;62.70;;;;;;5061046;28;21047;-77
2022/08/25 11:04:58;;;;;;;9.93;6.87;;;26.80;62.70;;;;;;5079518;28;20479;-78
2022/08/25 11:07:31;;;;;;;8.50;5.97;;;26.80;62.80;;;;;;5075732;28;20470;-76
2022/08/25 11:10:04;;;;;;;10.17;6.63;;;26.90;62.60;;;;;;5072875;28;20459;-77
2022/08/25 11:12:35;;;;;;;9.10;6.00;;;26.90;62.30;;;;;;5066471;28;20456;-77
2022/08/25 11:15:08;;;;;;;9.10;6.93;;;27.00;62.00;;;;;;5073052;28;20508;-80
2022/08/25 11:17:42;;;;;;;10.70;6.30;;;27.00;61.80;;;;;;5075101;28;21028;-78
2022/08/25 11:20:16;;;;;;;10.73;6.70;;;27.00;61.70;;;;;;5073916;28;20509;-80
2022/08/25 11:23:07;;;;;;;9.70;6.60;;;27.00;61.70;;;;;;5074805;28;21180;-79
2022/08/25 11:25:42;;;;;;;12.13;6.90;;;27.10;61.50;;;;;;5077685;28;20489;-80
2022/08/25 11:28:14;;;;;;;9.10;6.50;;;27.10;61.50;;;;;;5068488;28;20484;-81
2022/08/25 11:30:43;;;;;;;10.43;6.20;;;27.10;61.30;;;;;;5082026;28;20544;-81
2022/08/25 11:33:14;;;;;;;12.23;6.70;;;27.20;61.30;;;;;;5085762;28;20494;-81
2022/08/25 11:35:49;;;;;;;12.10;7.40;;;27.20;61.20;;;;;;5080173;28;20455;-81
2022/08/25 11:38:33;;;;;;;12.13;6.93;;;27.20;61.20;;;;;;5081575;28;20468;-79
2022/08/25 11:41:10;;;;;;;9.07;6.00;;;27.20;61.10;;;;;;5086780;28;20460;-81
2022/08/25 11:44:12;;;;;;;13.90;6.50;;;27.30;61.00;;;;;;5082248;28;20454;-80
2022/08/25 11:47:08;;;;;;;9.77;6.33;;;27.30;60.90;;;;;;5084540;28;20474;-81
2022/08/25 11:49:55;;;;;;;13.33;7.90;;;27.30;60.80;;;;;;5084972;28;20807;-82
2022/08/25 11:52:47;;;;;;;11.80;7.10;;;27.20;60.90;;;;;;5070389;28;20455;-81
2022/08/25 11:55:21;;;;;;;10.10;7.57;;;27.30;60.90;;;;;;5078798;28;20451;-80
2022/08/25 11:57:52;;;;;;;10.73;7.10;;;27.30;61.00;;;;;;5084099;28;20545;-81
2022/08/25 12:00:38;;;;;;;10.50;7.00;;;27.30;60.90;;;;;;5089566;28;20580;-82
2022/08/25 12:03:47;;;;;;;10.43;6.50;;;27.30;60.80;;;;;;5086699;28;20452;-79
2022/08/25 12:06:23;;;;;;;10.07;7.00;;;27.40;60.70;;;;;;5082130;28;20563;-81
2022/08/25 12:09:14;;;;;;;9.10;6.40;;;27.40;60.60;;;;;;5082371;28;20470;-81
2022/08/25 12:11:50;;;;;;;11.77;6.93;;;27.40;60.60;;;;;;5065411;28;20457;-79
2022/08/25 12:14:38;;;;;;;9.80;6.00;;;27.40;60.50;;;;;;5084082;28;20487;-80
2022/08/25 12:17:17;;;;;;;9.53;6.20;;;27.40;60.50;;;;;;5078385;28;20567;-81
2022/08/25 12:19:55;;;;;;;9.07;6.43;;;27.40;60.50;;;;;;5080676;28;20491;-80
2022/08/25 12:22:50;;;;;;;13.53;6.03;;;27.50;60.30;;;;;;5079857;28;20472;-80
2022/08/25 12:25:44;;;;;;;15.20;6.93;;;27.50;60.20;;;;;;5079089;28;20457;-80
2022/08/25 12:28:33;;;;;;;11.60;6.80;;;27.50;60.10;;;;;;5057501;28;21187;-81
2022/08/25 12:31:14;;;;;;;9.97;6.60;;;27.50;60.20;;;;;;5076794;28;20459;-81
2022/08/25 12:33:53;;;;;;;9.13;6.17;;;27.60;60.20;;;;;;5076322;28;20466;-81
2022/08/25 12:36:29;;;;;;;8.70;6.17;;;27.70;60.10;;;;;;5074900;28;20473;-81
2022/08/25 12:39:16;;;;;;;10.27;7.10;;;27.70;60.00;;;;;;5079515;28;20449;-80
2022/08/25 12:41:56;;;;;;;8.20;6.10;;;27.80;59.90;;;;;;5073370;28;20440;-82
2022/08/25 12:44:41;;;;;;;13.33;6.47;;;27.90;59.70;;;;;;5079686;28;20561;-81
2022/08/25 12:47:30;;;;;;;11.10;5.60;;;28.00;59.60;;;;;;5082681;28;20529;-80
2022/08/25 12:50:35;;;;;;;12.37;6.10;;;28.00;59.00;;;;;;5062851;28;21064;-80
2022/08/25 12:53:17;;;;;;;14.63;5.87;;;28.10;59.20;;;;;;5084072;28;20457;-81
2022/08/25 12:55:49;;;;;;;11.53;6.70;;;28.20;59.00;;;;;;5082865;28;20456;-81
2022/08/25 12:58:17;;;;;;;11.17;6.50;;;28.30;58.70;;;;;;5065810;28;20465;-81
2022/08/25 13:01:04;;;;;;;12.00;6.03;;;28.40;58.60;;;;;;5082032;28;20947;-81
2022/08/25 13:04:00;;;;;;;14.07;6.03;;;28.40;58.30;;;;;;5076306;28;20465;-81
2022/08/25 13:06:57;;;;;;;8.77;5.70;;;28.40;58.20;;;;;;5081861;28;20476;-81
2022/08/25 13:10:02;;;;;;;9.40;5.20;;;28.30;57.90;;;;;;5080600;28;20478;-80
2022/08/25 13:12:36;;;;;;;8.30;5.20;;;28.30;57.60;;;;;;5081697;28;20973;-81
2022/08/25 13:15:05;;;;;;;7.97;4.70;;;28.30;58.00;;;;;;5081622;28;20536;-81
2022/08/25 13:17:35;;;;;;;8.00;5.10;;;28.30;58.00;;;;;;5065559;28;20484;-82
2022/08/25 13:20:15;;;;;;;7.57;4.70;;;28.30;57.60;;;;;;5101341;28;20479;-81